Flight Track Log - Related Links

Times and Time Zones

All times are in EDT time to prevent confusion due to time zone crossing. See the TPA841 flight status page for this flight to view local times or setup timezone preferences in your user account.

Time Position Orientation Groundspeed Altitude Reporting Facility
EDT Latitude Longitude Course Direction KTS MPH feet Rate Location/Type
Wed 02:50:28 PM 25.7880 -80.2750 148° Southeast 171 197 500  Level FlightAware ADS-B
Wed 02:51:00 PM 25.6954 -80.2060 156° South  Level Estimated
Wed 02:52:00 PM 25.5954 -80.1220 152° Southeast  Level Estimated
Wed 02:53:00 PM 25.4953 -80.0381 156° South  Level Estimated
Wed 02:54:00 PM 25.3952 -79.9544 146° Southeast  Level Estimated
Wed 02:55:00 PM 25.2951 -79.8709 148° Southeast  Level Estimated
Wed 02:55:43 PM 25.4860 -80.1190 155° Southeast 290 334 9,800  Level FlightAware ADS-B
Wed 02:56:28 PM 25.4290 -80.0790 148° Southeast 330 380 10,800 1,200 Climbing FlightAware ADS-B
Wed 02:57:08 PM 25.3720 -80.0390 148° Southeast 368 423 11,500 1,553 Climbing FlightAware ADS-B
Wed 02:57:53 PM 25.3030 -79.9910 148° Southeast 385 443 13,000 1,976 Climbing FlightAware ADS-B
Wed 02:58:33 PM 25.2410 -79.9470 147° Southeast 401 461 14,300 2,025 Climbing FlightAware ADS-B
Wed 02:59:13 PM 25.1790 -79.9030 147° Southeast 403 464 15,700 2,188 Climbing FlightAware ADS-B
Wed 02:59:58 PM 25.1050 -79.8500 147° Southeast 406 467 17,400 2,047 Climbing FlightAware ADS-B
Wed 03:00:38 PM 25.0400 -79.8030 147° Southeast 422 486 18,600 1,694 Climbing FlightAware ADS-B
Wed 03:01:23 PM 24.9660 -79.7510 147° Southeast 427 491 19,800 1,694 Climbing FlightAware ADS-B
Wed 03:02:03 PM 24.8970 -79.7020 147° Southeast 438 504 21,000 1,680 Climbing FlightAware ADS-B
Wed 03:02:38 PM 24.8430 -79.6630 147° Southeast 443 510 21,900 1,482 Climbing FlightAware ADS-B
Wed 03:03:28 PM 24.7480 -79.5960 147° Southeast 447 514 23,100 847 Climbing FlightAware ADS-B
Wed 03:04:03 PM 24.6930 -79.5550 146° Southeast 447 514 23,100  Level FlightAware ADS-B
Wed 03:04:43 PM 24.6350 -79.5120 146° Southeast 447 514 23,100  Level FlightAware ADS-B
Wed 03:05:33 PM 24.5620 -79.4580 146° Southeast 447 514 23,100  Level FlightAware ADS-B
Wed 03:06:13 PM 24.5040 -79.4140 145° Southeast 447 514 23,100  Level FlightAware ADS-B
Wed 03:06:53 PM 24.4450 -79.3710 146° Southeast 447 514 23,100 3,565 Level FlightAware ADS-B
Wed 03:07:22 PM 24.3133 -79.2919 146° Southeast 493 567 27,200 3,573 Climbing Miami Center
Wed 03:08:22 PM 24.1853 -79.2028 148° Southeast 499 574 28,400 1,050 Climbing Miami Center
Wed 03:09:22 PM 24.0633 -79.1186 148° Southeast 508 585 29,300 -69 Climbing Miami Center
Wed 03:11:00 PM 23.8969 -78.9902 142° Southeast  Level FlightAware Approximate
Wed 03:18:00 PM 23.1957 -78.4139 144° Southeast  Level FlightAware Approximate
Wed 03:19:00 PM 23.0938 -78.3343 144° Southeast  Level FlightAware Approximate
Wed 03:20:00 PM 22.9919 -78.2548 144° Southeast  Level FlightAware Approximate
Wed 03:21:00 PM 22.8905 -78.1748 140° Southeast  Level FlightAware Approximate
Wed 03:22:00 PM 22.7940 -78.0878 140° Southeast  Level FlightAware Approximate
Wed 03:23:00 PM 22.6959 -78.0031 143° Southeast  Level FlightAware Approximate
Wed 03:24:00 PM 22.5954 -77.9218 143° Southeast  Level FlightAware Approximate
Wed 03:25:00 PM 22.4947 -77.8407 143° Southeast  Level FlightAware Approximate
Wed 03:26:00 PM 22.3941 -77.7597 143° Southeast  Level FlightAware Approximate
Wed 03:27:00 PM 22.2934 -77.6788 143° Southeast  Level FlightAware Approximate
Wed 03:28:00 PM 22.1927 -77.5980 143° Southeast  Level FlightAware Approximate
Wed 03:29:00 PM 22.0919 -77.5174 143° Southeast  Level FlightAware Approximate
Wed 03:30:00 PM 21.9911 -77.4368 143° Southeast  Level FlightAware Approximate
Wed 03:31:00 PM 21.8903 -77.3564 143° Southeast  Level FlightAware Approximate
Wed 03:32:00 PM 21.7894 -77.2761 144° Southeast  Level FlightAware Approximate
Wed 03:33:00 PM 21.6885 -77.1959 144° Southeast  Level FlightAware Approximate
Wed 03:34:00 PM 21.5875 -77.1158 144° Southeast  Level FlightAware Approximate
Wed 03:35:00 PM 21.4865 -77.0359 144° Southeast  Level FlightAware Approximate
Wed 03:36:00 PM 21.3848 -76.9569 144° Southeast  Level FlightAware Approximate
Wed 03:37:00 PM 21.2831 -76.8781 144° Southeast  Level FlightAware Approximate
Wed 03:38:00 PM 21.1814 -76.7994 144° Southeast  Level FlightAware Approximate
Wed 03:39:00 PM 21.0796 -76.7208 144° Southeast  Level FlightAware Approximate
Wed 03:40:00 PM 20.9778 -76.6423 144° Southeast  Level FlightAware Approximate
Wed 03:41:00 PM 20.8759 -76.5639 144° Southeast  Level FlightAware Approximate
Wed 03:42:00 PM 20.7740 -76.4857 144° Southeast  Level FlightAware Approximate
Wed 03:43:00 PM 20.6721 -76.4075 144° Southeast  Level FlightAware Approximate
Wed 03:44:00 PM 20.5701 -76.3295 144° Southeast  Level FlightAware Approximate
Wed 03:45:00 PM 20.4681 -76.2515 144° Southeast  Level FlightAware Approximate
Wed 03:46:00 PM 20.3661 -76.1737 144° Southeast  Level FlightAware Approximate
Wed 03:47:00 PM 20.2640 -76.0959 144° Southeast  Level FlightAware Approximate
Wed 03:48:00 PM 20.1619 -76.0183 144° Southeast  Level FlightAware Approximate
Wed 03:49:00 PM 20.0597 -75.9407 145° Southeast  Level FlightAware Approximate
Wed 03:50:00 PM 19.9578 -75.8629 144° Southeast  Level FlightAware Approximate
Wed 03:51:00 PM 19.8559 -75.7852 144° Southeast  Level FlightAware Approximate
Wed 03:52:00 PM 19.7539 -75.7075 144° Southeast  Level FlightAware Approximate
Wed 03:53:00 PM 19.6519 -75.6300 144° Southeast  Level FlightAware Approximate
Wed 03:54:00 PM 19.5498 -75.5526 144° Southeast  Level FlightAware Approximate
Wed 03:55:00 PM 19.4478 -75.4752 144° Southeast  Level FlightAware Approximate
Wed 03:56:00 PM 19.3456 -75.3980 144° Southeast  Level FlightAware Approximate
Wed 03:57:00 PM 19.2435 -75.3208 145° Southeast  Level FlightAware Approximate
Wed 03:58:00 PM 19.1413 -75.2438 145° Southeast  Level FlightAware Approximate
Wed 03:59:00 PM 19.0391 -75.1668 145° Southeast  Level FlightAware Approximate
Wed 04:00:00 PM 18.9369 -75.0900 145° Southeast  Level FlightAware Approximate
Wed 04:01:00 PM 18.8346 -75.0132 145° Southeast  Level FlightAware Approximate
Wed 04:02:00 PM 18.7323 -74.9365 145° Southeast  Level FlightAware Approximate
Wed 04:03:00 PM 18.6300 -74.8599 145° Southeast  Level FlightAware Approximate
Wed 04:04:00 PM 18.5278 -74.7831 144° Southeast  Level FlightAware Approximate
Wed 04:05:00 PM 18.4257 -74.7064 145° Southeast  Level FlightAware Approximate
Wed 04:06:00 PM 18.3235 -74.6297 145° Southeast  Level FlightAware Approximate
Wed 04:07:00 PM 18.2213 -74.5532 145° Southeast  Level FlightAware Approximate
Wed 04:08:00 PM 18.1190 -74.4767 145° Southeast  Level FlightAware Approximate
Wed 04:09:00 PM 18.0167 -74.4003 145° Southeast  Level FlightAware Approximate
Wed 04:10:00 PM 17.9144 -74.3241 145° Southeast  Level FlightAware Approximate
Wed 04:11:00 PM 17.8120 -74.2479 145° Southeast  Level FlightAware Approximate
Wed 04:12:00 PM 17.7096 -74.1719 145° Southeast  Level FlightAware Approximate
Wed 04:13:00 PM 17.6071 -74.0959 145° Southeast  Level FlightAware Approximate
Wed 04:14:00 PM 17.5047 -74.0200 145° Southeast  Level FlightAware Approximate
Wed 04:15:00 PM 17.4022 -73.9442 145° Southeast  Level FlightAware Approximate
Wed 04:16:00 PM 17.2997 -73.8685 145° Southeast  Level FlightAware Approximate
Wed 04:17:00 PM 17.1971 -73.7928 145° Southeast  Level FlightAware Approximate
Wed 04:18:00 PM 17.0945 -73.7173 145° Southeast  Level FlightAware Approximate
Wed 04:19:00 PM 16.9919 -73.6418 145° Southeast  Level FlightAware Approximate
Wed 04:20:00 PM 16.8893 -73.5664 145° Southeast  Level FlightAware Approximate
Wed 04:21:00 PM 16.7866 -73.4911 145° Southeast  Level FlightAware Approximate
Wed 04:22:00 PM 16.6839 -73.4159 145° Southeast  Level FlightAware Approximate
Wed 04:23:00 PM 16.5813 -73.3407 145° Southeast  Level FlightAware Approximate
Wed 04:24:00 PM 16.4786 -73.2655 145° Southeast  Level FlightAware Approximate
Wed 04:25:00 PM 16.3760 -73.1903 145° Southeast  Level FlightAware Approximate
Wed 04:26:00 PM 16.2733 -73.1152 145° Southeast  Level FlightAware Approximate
Wed 04:27:00 PM 16.1705 -73.0403 145° Southeast  Level FlightAware Approximate
Wed 04:28:00 PM 16.0678 -72.9653 145° Southeast  Level FlightAware Approximate
Wed 04:29:00 PM 15.9650 -72.8905 145° Southeast  Level FlightAware Approximate
Wed 04:30:00 PM 15.8623 -72.8158 145° Southeast  Level FlightAware Approximate
Wed 04:31:00 PM 15.7594 -72.7411 145° Southeast  Level FlightAware Approximate
Wed 04:32:00 PM 15.6566 -72.6665 145° Southeast  Level FlightAware Approximate
Wed 04:33:00 PM 15.5537 -72.5919 145° Southeast  Level FlightAware Approximate
Wed 04:34:00 PM 15.4508 -72.5175 145° Southeast  Level FlightAware Approximate
Wed 04:35:00 PM 15.3479 -72.4431 145° Southeast  Level FlightAware Approximate
Wed 04:36:00 PM 15.2450 -72.3688 145° Southeast  Level FlightAware Approximate
Wed 04:37:00 PM 15.1420 -72.2946 145° Southeast  Level FlightAware Approximate
Wed 04:38:00 PM 15.0390 -72.2204 145° Southeast  Level FlightAware Approximate
Wed 04:39:00 PM 14.9360 -72.1463 145° Southeast  Level FlightAware Approximate
Wed 04:40:00 PM 14.8329 -72.0723 145° Southeast  Level FlightAware Approximate
Wed 04:41:00 PM 14.7299 -71.9983 145° Southeast  Level FlightAware Approximate
Wed 04:42:00 PM 14.6268 -71.9245 145° Southeast  Level FlightAware Approximate
Wed 04:43:00 PM 14.5237 -71.8506 145° Southeast  Level FlightAware Approximate
Wed 04:44:00 PM 14.4206 -71.7769 145° Southeast  Level FlightAware Approximate
Wed 04:45:00 PM 14.3174 -71.7032 145° Southeast  Level FlightAware Approximate
Wed 04:46:00 PM 14.2142 -71.6296 145° Southeast  Level FlightAware Approximate
Wed 04:47:00 PM 14.1110 -71.5561 145° Southeast  Level FlightAware Approximate
Wed 04:48:00 PM 14.0078 -71.4826 145° Southeast  Level FlightAware Approximate
Wed 04:49:00 PM 13.9045 -71.4092 145° Southeast  Level FlightAware Approximate
Wed 04:50:00 PM 13.8013 -71.3359 145° Southeast  Level FlightAware Approximate
Wed 04:51:00 PM 13.6980 -71.2626 145° Southeast  Level FlightAware Approximate
Wed 04:52:00 PM 13.5947 -71.1894 145° Southeast  Level FlightAware Approximate
Wed 04:53:00 PM 13.4914 -71.1162 145° Southeast  Level FlightAware Approximate
Wed 04:54:00 PM 13.3880 -71.0432 145° Southeast  Level FlightAware Approximate
Wed 04:55:00 PM 13.2846 -70.9701 145° Southeast  Level FlightAware Approximate
Wed 04:56:00 PM 13.1812 -70.8972 146° Southeast  Level FlightAware Approximate
Wed 04:57:00 PM 13.0778 -70.8243 146° Southeast  Level FlightAware Approximate
Wed 04:58:00 PM 12.9744 -70.7514 146° Southeast  Level FlightAware Approximate
Wed 04:59:00 PM 12.8709 -70.6786 146° Southeast  Level FlightAware Approximate
Wed 05:00:00 PM 12.7674 -70.6059 146° Southeast  Level FlightAware Approximate
Wed 05:01:00 PM 12.6639 -70.5333 146° Southeast  Level FlightAware Approximate
Wed 05:02:00 PM 12.5604 -70.4607 146° Southeast  Level FlightAware Approximate
Wed 05:03:00 PM 12.4569 -70.3881 146° Southeast  Level FlightAware Approximate
Wed 05:04:00 PM 12.3532 -70.3159 146° Southeast  Level FlightAware Approximate
Wed 05:05:00 PM 12.2495 -70.2437 146° Southeast  Level FlightAware Approximate
Wed 05:06:00 PM 12.1457 -70.1715 146° Southeast  Level FlightAware Approximate
Wed 05:07:00 PM 12.0420 -70.0994 146° Southeast  Level FlightAware Approximate
Wed 05:08:00 PM 11.9382 -70.0274 146° Southeast  Level FlightAware Approximate
Wed 05:09:00 PM 11.8344 -69.9554 146° Southeast  Level FlightAware Approximate
Wed 05:10:00 PM 11.7306 -69.8835 146° Southeast  Level FlightAware Approximate
Wed 05:11:00 PM 11.6267 -69.8117 146° Southeast  Level FlightAware Approximate
Wed 05:12:00 PM 11.5229 -69.7398 146° Southeast  Level FlightAware Approximate
Wed 05:13:00 PM 11.4190 -69.6681 146° Southeast  Level FlightAware Approximate
Wed 05:14:00 PM 11.3151 -69.5964 146° Southeast  Level FlightAware Approximate
Wed 05:15:00 PM 11.2112 -69.5247 146° Southeast  Level FlightAware Approximate
Wed 05:16:00 PM 11.1073 -69.4531 146° Southeast  Level FlightAware Approximate
Wed 05:17:00 PM 11.0034 -69.3816 146° Southeast  Level FlightAware Approximate
Wed 05:18:00 PM 10.8994 -69.3101 146° Southeast  Level FlightAware Approximate
Wed 05:19:00 PM 10.7954 -69.2386 146° Southeast  Level FlightAware Approximate
Wed 05:20:00 PM 10.6914 -69.1672 146° Southeast  Level FlightAware Approximate
Wed 05:21:00 PM 10.5874 -69.0959 146° Southeast  Level FlightAware Approximate
Wed 05:22:00 PM 10.4834 -69.0246 146° Southeast  Level FlightAware Approximate
Wed 05:23:00 PM 10.3794 -68.9533 146° Southeast  Level FlightAware Approximate
Wed 05:24:00 PM 10.2753 -68.8821 146° Southeast  Level FlightAware Approximate
Wed 05:25:00 PM 10.1713 -68.8109 146° Southeast  Level FlightAware Approximate
Wed 05:26:00 PM 10.0672 -68.7398 146° Southeast  Level FlightAware Approximate
Wed 05:27:00 PM 9.9631 -68.6687 146° Southeast  Level FlightAware Approximate
Wed 05:28:00 PM 9.8590 -68.5977 146° Southeast  Level FlightAware Approximate
Wed 05:29:00 PM 9.7548 -68.5267 146° Southeast  Level FlightAware Approximate
Wed 05:30:00 PM 9.6507 -68.4558 146° Southeast  Level FlightAware Approximate
Wed 05:31:00 PM 9.5465 -68.3849 146° Southeast  Level FlightAware Approximate
Wed 05:32:00 PM 9.4424 -68.3140 146° Southeast  Level FlightAware Approximate
Wed 05:33:00 PM 9.3382 -68.2432 146° Southeast  Level FlightAware Approximate
Wed 05:34:00 PM 9.2340 -68.1725 146° Southeast  Level FlightAware Approximate
Wed 05:35:00 PM 9.1298 -68.1018 146° Southeast  Level FlightAware Approximate
Wed 05:36:00 PM 9.0255 -68.0311 146° Southeast  Level FlightAware Approximate
Wed 05:37:00 PM 8.9213 -67.9604 146° Southeast  Level FlightAware Approximate
Wed 05:38:00 PM 8.8170 -67.8898 146° Southeast  Level FlightAware Approximate
Wed 05:39:00 PM 8.7128 -67.8193 146° Southeast  Level FlightAware Approximate
Wed 05:40:00 PM 8.6085 -67.7487 146° Southeast  Level FlightAware Approximate
Wed 05:41:00 PM 8.5042 -67.6783 146° Southeast  Level FlightAware Approximate
Wed 05:42:00 PM 8.3999 -67.6078 146° Southeast  Level FlightAware Approximate
Wed 05:43:00 PM 8.2956 -67.5374 146° Southeast  Level FlightAware Approximate
Wed 05:44:00 PM 8.1912 -67.4670 146° Southeast  Level FlightAware Approximate
Wed 05:45:00 PM 8.0869 -67.3967 146° Southeast  Level FlightAware Approximate
Wed 05:46:00 PM 7.9826 -67.3264 146° Southeast  Level FlightAware Approximate
Wed 05:47:00 PM 7.8782 -67.2562 146° Southeast  Level FlightAware Approximate
Wed 05:48:00 PM 7.7738 -67.1859 146° Southeast  Level FlightAware Approximate
Wed 05:49:00 PM 7.6694 -67.1158 146° Southeast  Level FlightAware Approximate
Wed 05:50:00 PM 7.5650 -67.0456 146° Southeast  Level FlightAware Approximate
Wed 05:51:00 PM 7.4606 -66.9755 146° Southeast  Level FlightAware Approximate
Wed 05:52:00 PM 7.3562 -66.9054 146° Southeast  Level FlightAware Approximate
Wed 05:53:00 PM 7.2518 -66.8353 146° Southeast  Level FlightAware Approximate
Wed 05:54:00 PM 7.1473 -66.7653 146° Southeast  Level FlightAware Approximate
Wed 05:55:00 PM 7.0429 -66.6953 146° Southeast  Level FlightAware Approximate
Wed 05:56:00 PM 6.9384 -66.6254 146° Southeast  Level FlightAware Approximate
Wed 05:57:00 PM 6.8339 -66.5554 146° Southeast  Level FlightAware Approximate
Wed 05:58:00 PM 6.7294 -66.4855 146° Southeast  Level FlightAware Approximate
Wed 05:59:00 PM 6.6249 -66.4157 146° Southeast  Level FlightAware Approximate
Wed 06:00:00 PM 6.5204 -66.3458 146° Southeast  Level FlightAware Approximate
Wed 06:01:00 PM 6.4159 -66.2760 146° Southeast  Level FlightAware Approximate
Wed 06:02:00 PM 6.3113 -66.2062 146° Southeast  Level FlightAware Approximate
Wed 06:03:00 PM 6.2068 -66.1365 146° Southeast  Level FlightAware Approximate
Wed 06:04:00 PM 6.1023 -66.0668 146° Southeast  Level FlightAware Approximate
Wed 06:05:00 PM 5.9977 -65.9971 146° Southeast  Level FlightAware Approximate
Wed 06:06:00 PM 5.8932 -65.9274 146° Southeast  Level FlightAware Approximate
Wed 06:07:00 PM 5.7886 -65.8578 146° Southeast  Level FlightAware Approximate
Wed 06:08:00 PM 5.6840 -65.7881 146° Southeast  Level FlightAware Approximate
Wed 06:09:00 PM 5.5794 -65.7186 146° Southeast  Level FlightAware Approximate
Wed 06:10:00 PM 5.4748 -65.6490 146° Southeast  Level FlightAware Approximate
Wed 06:11:00 PM 5.3702 -65.5794 146° Southeast  Level FlightAware Approximate
Wed 06:12:00 PM 5.2656 -65.5099 147° Southeast  Level FlightAware Approximate
Wed 06:13:00 PM 5.1610 -65.4404 147° Southeast  Level FlightAware Approximate
Wed 06:14:00 PM 5.0564 -65.3709 147° Southeast  Level FlightAware Approximate
Wed 06:15:00 PM 4.9517 -65.3015 147° Southeast  Level FlightAware Approximate
Wed 06:16:00 PM 4.8471 -65.2321 147° Southeast  Level FlightAware Approximate
Wed 06:17:00 PM 4.7425 -65.1627 147° Southeast  Level FlightAware Approximate
Wed 06:18:00 PM 4.6378 -65.0933 147° Southeast  Level FlightAware Approximate
Wed 06:19:00 PM 4.5331 -65.0239 147° Southeast  Level FlightAware Approximate
Wed 06:20:00 PM 4.4285 -64.9546 147° Southeast  Level FlightAware Approximate
Wed 06:21:00 PM 4.3238 -64.8852 147° Southeast  Level FlightAware Approximate
Wed 06:22:00 PM 4.2191 -64.8159 147° Southeast  Level FlightAware Approximate
Wed 06:23:00 PM 4.1144 -64.7466 147° Southeast  Level FlightAware Approximate
Wed 06:24:00 PM 4.0097 -64.6774 147° Southeast  Level FlightAware Approximate
Wed 06:25:00 PM 3.9050 -64.6081 147° Southeast  Level FlightAware Approximate
Wed 06:26:00 PM 3.8003 -64.5389 147° Southeast  Level FlightAware Approximate
Wed 06:27:00 PM 3.6956 -64.4697 147° Southeast  Level FlightAware Approximate
Wed 06:28:00 PM 3.5909 -64.4005 147° Southeast  Level FlightAware Approximate
Wed 06:29:00 PM 3.4862 -64.3313 147° Southeast  Level FlightAware Approximate
Wed 06:30:00 PM 3.3815 -64.2621 147° Southeast  Level FlightAware Approximate
Wed 06:31:00 PM 3.2767 -64.1929 147° Southeast  Level FlightAware Approximate
Wed 06:32:00 PM 3.1720 -64.1238 147° Southeast  Level FlightAware Approximate
Wed 06:33:00 PM 3.0673 -64.0547 147° Southeast  Level FlightAware Approximate
Wed 06:34:00 PM 2.9625 -63.9856 147° Southeast  Level FlightAware Approximate
Wed 06:35:00 PM 2.8578 -63.9165 147° Southeast  Level FlightAware Approximate
Wed 06:36:00 PM 2.7530 -63.8474 147° Southeast  Level FlightAware Approximate
Wed 06:37:00 PM 2.6483 -63.7783 147° Southeast  Level FlightAware Approximate
Wed 06:38:00 PM 2.5435 -63.7093 147° Southeast  Level FlightAware Approximate
Wed 06:39:00 PM 2.4387 -63.6402 147° Southeast  Level FlightAware Approximate
Wed 06:40:00 PM 2.3340 -63.5712 147° Southeast  Level FlightAware Approximate
Wed 06:41:00 PM 2.2292 -63.5021 147° Southeast  Level FlightAware Approximate
Wed 06:42:00 PM 2.1244 -63.4331 147° Southeast  Level FlightAware Approximate
Wed 06:43:00 PM 2.0196 -63.3641 147° Southeast  Level FlightAware Approximate
Wed 06:44:00 PM 1.9149 -63.2951 147° Southeast  Level FlightAware Approximate
Wed 06:45:00 PM 1.8101 -63.2261 147° Southeast  Level FlightAware Approximate
Wed 06:46:00 PM 1.7053 -63.1571 147° Southeast  Level FlightAware Approximate
Wed 06:47:00 PM 1.6005 -63.0881 147° Southeast  Level FlightAware Approximate
Wed 06:48:00 PM 1.4957 -63.0192 147° Southeast  Level FlightAware Approximate
Wed 06:49:00 PM 1.3909 -62.9502 147° Southeast  Level FlightAware Approximate
Wed 06:50:00 PM 1.2861 -62.8812 147° Southeast  Level FlightAware Approximate
Wed 06:51:00 PM 1.1813 -62.8123 147° Southeast  Level FlightAware Approximate
Wed 06:52:00 PM 1.0765 -62.7433 147° Southeast  Level FlightAware Approximate
Wed 06:53:00 PM 0.9717 -62.6744 147° Southeast  Level FlightAware Approximate
Wed 06:54:00 PM 0.8669 -62.6055 147° Southeast  Level FlightAware Approximate
Wed 06:55:00 PM 0.7621 -62.5365 147° Southeast  Level FlightAware Approximate
Wed 06:56:00 PM 0.6573 -62.4676 147° Southeast  Level FlightAware Approximate
Wed 06:57:00 PM 0.5525 -62.3987 147° Southeast  Level FlightAware Approximate
Wed 06:58:00 PM 0.4477 -62.3297 147° Southeast  Level FlightAware Approximate
Wed 06:59:00 PM 0.3429 -62.2608 147° Southeast  Level FlightAware Approximate
Wed 07:00:00 PM 0.2381 -62.1919 147° Southeast  Level FlightAware Approximate
Wed 07:01:00 PM 0.1333 -62.1230 147° Southeast  Level FlightAware Approximate
Wed 07:02:00 PM 0.0285 -62.0540 147° Southeast  Level FlightAware Approximate
Wed 07:02:33 PM -2.5020 -61.0050 147° Southeast 360 414 12,300  Level FlightAware ADS-B
Wed 07:03:00 PM -0.0764 -61.9851 147° Southeast  Level FlightAware Approximate
Wed 07:03:13 PM -2.5540 -60.9700 146° Southeast 358 412 12,100  Level FlightAware ADS-B
Wed 07:03:48 PM -2.6050 -60.9370 147° Southeast 343 395 10,500 -1,200 Descending FlightAware ADS-B
Wed 07:04:33 PM -2.6580 -60.9000 145° Southeast 343 395 10,500  Level FlightAware ADS-B
Wed 07:05:13 PM -2.7030 -60.8700 146° Southeast 343 395 10,500 -941 Level FlightAware ADS-B
Wed 07:07:00 PM -2.7879 -60.6628 112° Southeast  Level Estimated
Wed 07:08:00 PM -2.8354 -60.5466 112° Southeast  Level Estimated
Wed 07:08:48 PM -2.8020 -60.5940 112° Southeast 266 306 6,500  Level FlightAware ADS-B
Wed 07:09:18 PM -2.8190 -60.5620 118° Southeast 270 311 6,100 -880 Descending FlightAware ADS-B
Wed 07:10:03 PM -2.8470 -60.5090 118° Southeast 264 304 5,400 -943 Descending FlightAware ADS-B
Wed 07:10:28 PM -2.8600 -60.4850 118° Southeast 259 298 5,000 -873 Descending FlightAware ADS-B
Wed 07:10:58 PM -2.8770 -60.4510 117° Southeast 262 302 4,600 -873 Descending FlightAware ADS-B
Wed 07:11:23 PM -2.8930 -60.4220 119° Southeast 262 302 4,200 -480 Descending FlightAware ADS-B
Wed 07:11:48 PM -2.9050 -60.3980 117° Southeast 262 302 4,200 -776 Level FlightAware ADS-B
Wed 07:12:48 PM -2.9390 -60.3350 118° Southeast 257 296 3,100 -1,059 Descending FlightAware ADS-B
Wed 07:13:13 PM -2.9520 -60.3090 117° Southeast 255 293 2,700 -348 Descending FlightAware ADS-B
Wed 07:15:00 PM -3.0230 -60.0966 109° East  Level Estimated
Wed 07:15:23 PM -3.0180 -60.1850 109° East 179 206 2,200  Level FlightAware ADS-B
Wed 07:16:03 PM -3.0340 -60.1560 119° Southeast 173 199 2,100 -429 Descending FlightAware ADS-B
Wed 07:16:33 PM -3.0380 -60.1330 100° East 168 193 1,700 -800 Descending FlightAware ADS-B
Wed 07:17:03 PM -3.0380 -60.1110 90° East 148 170 1,300 -738 Descending FlightAware ADS-B
Wed 07:17:38 PM -3.0390 -60.0900 93° East 147 169 900 -700 Descending FlightAware ADS-B
Wed 07:18:03 PM -3.0390 -60.0720 90° East 146 168 600 -400 Descending FlightAware ADS-B
Wed 07:18:38 PM -3.0390 -60.0500 90° East 146 168 500 -171 Descending FlightAware ADS-B

Login

Don't have an account? Register now (free) for customized features, flight alerts, and more!